This is the latest recevied weather packets stored in our database for station/object Temelin. If no packets are shown the sender has not sent any weather packets the latest 1 day(s).
| Time | Temp. | Humidity | Pressure | Rain* | Wind** | Luminosity | Snow |
|---|---|---|---|---|---|---|---|
| 1778026698 | 12.22° C | 93% | - | - | 3.13 m/s, 250° | - | - |
| 1778023098 | 12.78° C | 93% | - | - | 2.24 m/s, 10° | - | - |
| 1778019497 | 13.89° C | 87% | - | - | 6.26 m/s, 290° | - | - |
| 1778015931 | 13.89° C | 82% | - | - | 7.15 m/s, 290° | - | - |
| 1778012315 | 17.78° C | 59% | - | - | 3.13 m/s, 270° | - | - |
| 1778008732 | 17.78° C | 59% | - | - | 2.24 m/s, 40° | - | - |
| 1778005115 | 20° C | 52% | - | - | 4.02 m/s, 60° | - | - |
| 1778001498 | 21.11° C | 43% | - | - | 2.24 m/s, 100° | - | - |
| 1777997957 | 22.22° C | 43% | - | - | 4.02 m/s, 110° | - | - |
| 1777994298 | 20° C | 52% | - | - | 7.15 m/s, 120° | - | - |
| 1777990716 | 23.89° C | 36% | - | - | 0.89 m/s, 260° | - | - |
| 1777987101 | 23.89° C | 36% | - | - | 2.24 m/s, 290° | - | - |
| 1777983499 | 23.89° C | 29% | - | - | 3.13 m/s, 140° | - | - |
| 1777979898 | 22.78° C | 38% | - | - | 0.89 m/s, 240° | - | - |
| 1777976299 | 22.22° C | 37% | - | - | 2.24 m/s, 240° | - | - |
| 1777972698 | 21.11° C | 43% | - | - | 0.89 m/s, 230° | - | - |
| 1777969099 | 18.89° C | 52% | - | - | 0.89 m/s, 210° | - | - |
| 1777965498 | 17.78° C | 48% | - | - | 2.24 m/s, 210° | - | - |
| 1777961901 | 16.11° C | 59% | - | - | 0.89 m/s, 80° | - | - |
| 1777958299 | 13.89° C | 76% | - | - | 2.24 m/s, 80° | - | - |
| 1777954697 | 12.22° C | 81% | - | - | 3.13 m/s, 50° | - | - |
| 1777951097 | 12.78° C | 71% | - | - | 2.24 m/s, 60° | - | - |
| 1777947498 | 13.89° C | 71% | - | - | 0.89 m/s, 290° | - | - |
| 1777943901 | 15° C | 62% | - | - | 2.24 m/s, 300° | - | - |
* Rain since midnight (hover to see other rain measurements)
** Current wind speed in m/s (hover to see current wind gust speed)